Terminal Aerodrome Forecast
Issued by NWS

Home | Current Version | Previous Version | Text Only | Print | Product List | Glossary On
Versions: 1 2 3 4 5 6 7 8 9 10 11 12 13 14 15
000
FTUS45 KRIW 231700
TAFCPR
TAF
KCPR 231720Z 2318/2418 23014G24KT P6SM BKN060
     FM232100 24020G30KT P6SM VCSH SCT050 BKN060
     FM240400 24015KT P6SM VCSH BKN050
     FM240600 27014KT P6SM SCT030 BKN050
     FM241000 26007KT P6SM FEW015 SCT040
     FM241600 26011KT P6SM FEW025=

USA.gov is the U.S. government's official web portal to all federal, state and local government web resources and services.